Time;durP1;ratioP1;P1;durP2;ratioP2;P2;SDS_P1;SDS_P2;PMS_P1;PMS_P2;Temp;Humidity;BMP_temperature;BMP_pressure;BME280_temperature;BME280_humidity;BME280_pressure;Samples;Min_cycle;Max_cycle;Signal;HPM_P1;HPM_P2
2021/09/15 00:00:08;;;;;;;9.02;7.68;;;19.90;91.40;;;;;;5043202;28;20466;-84
2021/09/15 00:02:33;;;;;;;9.93;7.95;;;19.90;91.40;;;;;;5014389;28;20057;-85
2021/09/15 00:05:00;;;;;;;8.90;7.78;;;19.90;91.50;;;;;;5049613;28;20041;-84
2021/09/15 00:07:25;;;;;;;7.90;6.93;;;19.90;91.50;;;;;;5036097;28;20124;-85
2021/09/15 00:09:51;;;;;;;10.50;7.70;;;19.80;91.50;;;;;;5020132;28;20120;-85
2021/09/15 00:12:16;;;;;;;9.43;7.50;;;19.90;91.60;;;;;;5040997;28;20040;-84
2021/09/15 00:14:42;;;;;;;12.65;8.52;;;19.90;91.60;;;;;;5016965;28;20083;-84
2021/09/15 00:17:07;;;;;;;13.02;7.70;;;19.80;91.60;;;;;;5036077;28;20064;-84
2021/09/15 00:19:33;;;;;;;9.30;7.30;;;19.80;91.60;;;;;;5036524;28;20363;-83
2021/09/15 00:21:59;;;;;;;8.13;7.13;;;19.80;91.60;;;;;;5047451;28;20100;-84
2021/09/15 00:24:25;;;;;;;8.38;7.25;;;19.80;91.70;;;;;;5023682;28;20053;-85
2021/09/15 00:26:50;;;;;;;10.27;7.95;;;19.80;91.70;;;;;;5016456;28;20439;-83
2021/09/15 00:29:16;;;;;;;10.27;8.00;;;19.80;91.70;;;;;;5019647;28;20508;-84
2021/09/15 00:31:42;;;;;;;9.85;7.47;;;19.80;91.70;;;;;;5053133;28;20029;-84
2021/09/15 00:34:07;;;;;;;8.88;7.43;;;19.80;91.70;;;;;;5033271;28;20436;-84
2021/09/15 00:36:33;;;;;;;8.85;7.22;;;19.80;91.70;;;;;;5019678;28;20052;-84
2021/09/15 00:38:58;;;;;;;11.07;7.72;;;19.80;91.70;;;;;;5053047;28;20029;-84
2021/09/15 00:41:24;;;;;;;10.00;7.28;;;19.80;91.70;;;;;;5050012;28;20033;-85
2021/09/15 00:43:57;;;;;;;15.75;8.25;;;19.80;91.70;;;;;;5034403;28;20033;-84
2021/09/15 00:46:22;;;;;;;7.70;6.90;;;19.80;91.80;;;;;;5051253;28;20033;-84
2021/09/15 00:48:48;;;;;;;9.52;7.93;;;19.80;91.70;;;;;;5051025;28;20041;-84
2021/09/15 00:51:14;;;;;;;11.10;7.20;;;19.80;91.70;;;;;;5026021;28;20485;-84
2021/09/15 00:53:41;;;;;;;9.98;7.47;;;19.80;91.70;;;;;;5050852;28;20033;-84
2021/09/15 00:56:06;;;;;;;8.75;6.35;;;19.80;91.60;;;;;;5052538;28;20029;-84
2021/09/15 00:58:32;;;;;;;12.02;8.20;;;19.80;91.60;;;;;;5035832;28;20035;-85
2021/09/15 01:00:57;;;;;;;12.85;8.00;;;19.80;91.60;;;;;;5044932;28;20389;-85
2021/09/15 01:03:23;;;;;;;8.70;7.68;;;19.80;91.60;;;;;;5050855;28;20053;-85
2021/09/15 01:05:49;;;;;;;11.77;6.95;;;19.90;91.60;;;;;;5019149;28;20418;-84
2021/09/15 01:08:15;;;;;;;9.93;7.40;;;19.90;91.60;;;;;;5024638;28;20111;-85
2021/09/15 01:10:42;;;;;;;9.88;7.15;;;19.90;91.60;;;;;;5036494;28;20059;-85
2021/09/15 01:13:08;;;;;;;8.48;7.65;;;19.90;91.60;;;;;;5052153;28;20025;-85
2021/09/15 01:15:34;;;;;;;9.82;8.10;;;19.90;91.60;;;;;;5018868;28;20040;-85
2021/09/15 01:18:11;;;;;;;11.52;6.90;;;19.90;91.60;;;;;;5018678;28;20462;-85
2021/09/15 01:20:38;;;;;;;10.27;7.47;;;19.80;91.70;;;;;;5035380;28;20021;-85
2021/09/15 01:23:04;;;;;;;8.52;7.53;;;19.90;91.70;;;;;;5052563;28;20021;-85
2021/09/15 01:25:29;;;;;;;12.30;7.47;;;19.90;91.80;;;;;;5035819;28;20410;-85
2021/09/15 01:27:55;;;;;;;13.30;8.32;;;19.80;91.80;;;;;;5035317;28;20040;-85
2021/09/15 01:30:21;;;;;;;10.75;8.35;;;19.80;91.80;;;;;;5034837;28;20044;-85
2021/09/15 01:32:46;;;;;;;11.95;8.18;;;19.90;91.80;;;;;;5034339;28;20411;-84
2021/09/15 01:35:12;;;;;;;13.75;8.70;;;19.80;91.80;;;;;;5015076;28;20121;-85
2021/09/15 01:37:37;;;;;;;9.07;7.68;;;19.80;91.90;;;;;;5018632;28;20056;-85
2021/09/15 01:40:04;;;;;;;14.20;8.75;;;19.80;91.90;;;;;;5019875;28;20021;-85
2021/09/15 01:42:29;;;;;;;14.55;8.30;;;19.80;91.90;;;;;;5034932;28;20021;-85
2021/09/15 01:44:55;;;;;;;12.27;8.52;;;19.80;91.90;;;;;;5052797;28;20037;-84
2021/09/15 01:47:21;;;;;;;10.40;8.60;;;19.80;91.90;;;;;;5002030;28;20033;-85
2021/09/15 01:49:46;;;;;;;13.07;8.80;;;19.80;91.90;;;;;;5052401;28;20496;-85
2021/09/15 01:52:14;;;;;;;9.25;7.45;;;19.80;91.90;;;;;;5051040;28;20417;-85
2021/09/15 01:54:40;;;;;;;12.60;8.98;;;19.80;92.00;;;;;;5050838;28;20386;-85
2021/09/15 01:57:06;;;;;;;11.38;8.98;;;19.80;92.00;;;;;;5002401;28;20025;-85
2021/09/15 01:59:32;;;;;;;10.35;8.38;;;19.80;92.00;;;;;;5033647;28;20029;-85
2021/09/15 02:01:58;;;;;;;10.25;7.75;;;19.80;92.00;;;;;;5035832;28;20033;-85
2021/09/15 02:04:24;;;;;;;9.23;7.38;;;19.80;92.00;;;;;;5037541;28;20033;-85
2021/09/15 02:06:50;;;;;;;11.27;8.15;;;19.80;92.00;;;;;;5054414;28;20430;-85
2021/09/15 02:09:16;;;;;;;11.25;8.95;;;19.70;92.00;;;;;;5054158;28;20502;-85
2021/09/15 02:11:42;;;;;;;12.73;9.32;;;19.70;92.10;;;;;;5055204;28;20055;-84
2021/09/15 02:14:08;;;;;;;15.27;10.05;;;19.70;92.10;;;;;;5017475;28;20478;-85
2021/09/15 02:16:34;;;;;;;11.73;8.10;;;19.70;92.10;;;;;;5049769;28;20029;-85
2021/09/15 02:19:00;;;;;;;11.20;9.13;;;19.70;92.10;;;;;;5037281;28;20497;-85
2021/09/15 02:21:25;;;;;;;11.40;9.20;;;19.70;92.20;;;;;;5033435;28;20758;-85
2021/09/15 02:23:51;;;;;;;9.82;8.50;;;19.70;92.20;;;;;;5017987;28;20033;-85
2021/09/15 02:26:17;;;;;;;12.52;10.05;;;19.70;92.30;;;;;;5028910;28;20144;-85
2021/09/15 02:28:43;;;;;;;10.95;8.82;;;19.70;92.30;;;;;;5017044;28;20060;-85
2021/09/15 02:31:09;;;;;;;14.55;11.35;;;19.70;92.30;;;;;;5042457;28;20032;-85
2021/09/15 02:33:35;;;;;;;11.43;9.52;;;19.60;92.30;;;;;;5053808;28;20029;-85
2021/09/15 02:36:00;;;;;;;11.32;9.38;;;19.60;92.30;;;;;;5037035;28;20021;-85
2021/09/15 02:38:26;;;;;;;15.02;10.18;;;19.60;92.40;;;;;;5037133;28;20159;-84
2021/09/15 02:40:52;;;;;;;12.68;10.60;;;19.60;92.40;;;;;;5037154;28;20520;-85
2021/09/15 02:43:18;;;;;;;13.20;10.40;;;19.60;92.70;;;;;;5036989;28;20044;-85
2021/09/15 02:45:43;;;;;;;14.80;11.13;;;19.60;92.50;;;;;;5053176;28;20119;-85
2021/09/15 02:48:09;;;;;;;14.77;11.18;;;19.60;92.50;;;;;;5020722;28;20040;-85
2021/09/15 02:50:35;;;;;;;15.75;12.02;;;19.60;92.50;;;;;;5020196;28;20905;-85
2021/09/15 02:53:00;;;;;;;12.60;9.73;;;19.50;92.60;;;;;;5053643;28;20025;-85
2021/09/15 02:55:26;;;;;;;15.35;11.45;;;19.50;92.60;;;;;;5036449;28;20120;-85
2021/09/15 02:57:52;;;;;;;14.05;12.07;;;19.40;92.70;;;;;;5054486;28;20031;-85
2021/09/15 03:00:17;;;;;;;16.98;11.65;;;19.40;92.80;;;;;;5035700;28;20470;-85
2021/09/15 03:02:44;;;;;;;18.45;11.85;;;19.50;92.80;;;;;;4986450;28;1121745;-85
2021/09/15 03:05:10;;;;;;;12.38;11.00;;;19.40;92.80;;;;;;5029633;28;20175;-85
2021/09/15 03:07:36;;;;;;;12.57;10.73;;;19.50;92.80;;;;;;5054133;28;20085;-85
2021/09/15 03:10:03;;;;;;;18.38;11.80;;;19.50;92.80;;;;;;5021192;28;20641;-84
2021/09/15 03:12:29;;;;;;;14.05;12.55;;;19.50;92.80;;;;;;5055007;28;20031;-85
2021/09/15 03:14:54;;;;;;;15.10;12.02;;;19.50;92.90;;;;;;5036163;28;20469;-85
2021/09/15 03:17:20;;;;;;;14.38;11.23;;;19.50;92.90;;;;;;5034539;28;20025;-85
2021/09/15 03:19:46;;;;;;;14.00;11.50;;;19.60;92.90;;;;;;5018206;28;20422;-85
2021/09/15 03:22:12;;;;;;;15.85;12.65;;;19.60;92.90;;;;;;5036399;28;20501;-84
2021/09/15 03:24:37;;;;;;;17.48;11.95;;;19.60;92.90;;;;;;5034351;28;20041;-85
2021/09/15 03:27:03;;;;;;;13.05;9.93;;;19.50;92.90;;;;;;5049581;28;20078;-85
2021/09/15 03:29:33;;;;;;;15.85;12.93;;;19.60;93.00;;;;;;5033733;28;20445;-85
2021/09/15 03:31:59;;;;;;;14.85;12.25;;;19.60;93.00;;;;;;5053685;28;20036;-85
2021/09/15 03:34:24;;;;;;;20.80;12.30;;;19.60;93.00;;;;;;5034687;28;20033;-85
2021/09/15 03:36:51;;;;;;;18.42;12.23;;;19.60;92.90;;;;;;5035715;28;20061;-86
2021/09/15 03:39:17;;;;;;;14.02;11.05;;;19.60;93.00;;;;;;5036033;28;20379;-88
2021/09/15 03:41:42;;;;;;;27.95;15.93;;;19.70;93.00;;;;;;5036728;28;20021;-87
2021/09/15 03:44:08;;;;;;;21.58;13.75;;;19.60;93.00;;;;;;5051860;28;20029;-86
2021/09/15 03:46:34;;;;;;;22.73;15.80;;;19.70;93.10;;;;;;5023681;28;20022;-87
2021/09/15 03:49:00;;;;;;;19.55;14.88;;;19.60;93.20;;;;;;5034298;28;20512;-87
2021/09/15 03:51:26;;;;;;;17.33;13.25;;;19.60;93.30;;;;;;5018065;28;20033;-87
2021/09/15 03:53:52;;;;;;;20.17;13.52;;;19.60;93.40;;;;;;5034616;28;20029;-87
2021/09/15 03:56:18;;;;;;;23.10;14.45;;;19.60;93.40;;;;;;5053961;28;20039;-87
2021/09/15 03:58:44;;;;;;;21.38;13.88;;;19.60;93.50;;;;;;5014354;28;20083;-87
2021/09/15 04:01:10;;;;;;;26.05;16.83;;;19.60;93.50;;;;;;5016536;28;20107;-87
2021/09/15 04:03:37;;;;;;;23.30;16.45;;;19.60;93.60;;;;;;5034387;28;20041;-87
2021/09/15 04:06:03;;;;;;;26.73;16.25;;;19.60;93.60;;;;;;5031774;28;20033;-86
2021/09/15 04:08:29;;;;;;;21.42;16.45;;;19.60;93.70;;;;;;5034348;28;20040;-86
2021/09/15 04:10:54;;;;;;;17.73;14.50;;;19.70;93.70;;;;;;5035975;28;20486;-88
2021/09/15 04:13:20;;;;;;;24.50;14.57;;;19.70;93.70;;;;;;5016858;28;20564;-87
2021/09/15 04:15:45;;;;;;;19.55;13.75;;;19.70;93.70;;;;;;5032511;28;20513;-87
2021/09/15 04:18:13;;;;;;;18.75;15.48;;;19.70;93.70;;;;;;5019967;28;20027;-87
2021/09/15 04:20:39;;;;;;;21.42;16.30;;;19.70;93.70;;;;;;5052827;28;20112;-87
2021/09/15 04:23:12;;;;;;;20.88;15.77;;;19.70;93.80;;;;;;5015464;28;20033;-86
2021/09/15 04:33:37;;;;;;;23.40;17.58;;;19.70;93.90;;;;;;5052947;28;20108;-87
2021/09/15 04:36:03;;;;;;;17.08;14.68;;;19.70;93.90;;;;;;5017899;28;20111;-86
2021/09/15 04:38:29;;;;;;;25.75;16.38;;;19.70;93.90;;;;;;5032413;28;20026;-86
2021/09/15 04:40:54;;;;;;;22.30;16.73;;;19.70;94.30;;;;;;5040335;28;20032;-87
2021/09/15 04:43:20;;;;;;;21.25;15.70;;;19.70;94.00;;;;;;5031169;28;20110;-86
2021/09/15 04:45:46;;;;;;;21.63;15.10;;;19.70;94.00;;;;;;5032223;28;20030;-87
2021/09/15 04:48:11;;;;;;;23.10;15.77;;;19.70;94.00;;;;;;5036045;28;20029;-85
2021/09/15 04:50:37;;;;;;;22.15;16.05;;;19.70;94.00;;;;;;5035129;28;20441;-86
2021/09/15 04:53:03;;;;;;;26.42;16.40;;;19.70;93.90;;;;;;5035537;28;20037;-85
2021/09/15 04:55:31;;;;;;;22.58;16.83;;;19.70;94.30;;;;;;5032305;28;20060;-86
2021/09/15 04:57:57;;;;;;;26.42;16.55;;;19.70;94.00;;;;;;5026491;28;20124;-86
2021/09/15 05:00:23;;;;;;;22.00;16.63;;;19.70;94.10;;;;;;5046952;28;20108;-86
2021/09/15 05:02:49;;;;;;;24.02;17.17;;;19.70;94.10;;;;;;5025213;28;20049;-86
2021/09/15 05:05:14;;;;;;;21.83;15.93;;;19.70;94.10;;;;;;5028280;28;20038;-86
2021/09/15 05:07:40;;;;;;;22.33;16.42;;;19.70;94.10;;;;;;5031569;28;20057;-86
2021/09/15 05:10:06;;;;;;;17.00;14.98;;;19.70;94.10;;;;;;5032288;28;20032;-86
2021/09/15 05:12:32;;;;;;;22.23;15.43;;;19.80;94.10;;;;;;5031724;28;20021;-85
2021/09/15 05:14:58;;;;;;;19.70;15.27;;;19.70;94.10;;;;;;5031714;28;20087;-86
2021/09/15 05:17:24;;;;;;;31.77;21.45;;;19.70;94.20;;;;;;5031552;28;20021;-80
2021/09/15 05:19:50;;;;;;;23.65;18.00;;;19.70;94.20;;;;;;5033388;28;20028;-80
2021/09/15 05:22:15;;;;;;;19.10;16.50;;;19.70;94.20;;;;;;5032443;28;20033;-80
2021/09/15 05:24:41;;;;;;;24.25;17.70;;;19.70;94.20;;;;;;5026883;28;20041;-80
2021/09/15 05:27:07;;;;;;;21.10;17.23;;;19.70;94.20;;;;;;5030055;28;20045;-80
2021/09/15 05:29:32;;;;;;;22.55;18.45;;;19.70;94.20;;;;;;5026180;28;20030;-80
2021/09/15 05:31:58;;;;;;;25.15;19.10;;;19.70;94.30;;;;;;5009799;28;20574;-80
2021/09/15 05:34:23;;;;;;;21.77;17.67;;;19.70;94.30;;;;;;5030537;28;20571;-80
2021/09/15 05:36:49;;;;;;;28.65;19.30;;;19.70;94.30;;;;;;5030857;28;20509;-80
2021/09/15 05:39:15;;;;;;;24.75;19.20;;;19.60;94.30;;;;;;5032929;28;20018;-80
2021/09/15 05:41:40;;;;;;;24.08;20.38;;;19.60;94.30;;;;;;5018092;28;20115;-80
2021/09/15 05:44:06;;;;;;;26.75;20.83;;;19.60;94.40;;;;;;5031001;28;20025;-80
2021/09/15 05:46:32;;;;;;;25.67;18.83;;;19.60;94.40;;;;;;5030657;28;20382;-80
2021/09/15 05:48:57;;;;;;;22.55;17.98;;;19.60;94.50;;;;;;5031585;28;20037;-80
2021/09/15 05:51:23;;;;;;;22.95;19.38;;;19.60;94.50;;;;;;5026742;28;20486;-80
2021/09/15 05:53:49;;;;;;;24.60;19.23;;;19.60;94.50;;;;;;5031391;28;20096;-80
2021/09/15 05:56:14;;;;;;;31.08;19.35;;;19.60;94.50;;;;;;5013606;28;20367;-80
2021/09/15 05:58:40;;;;;;;25.73;18.30;;;19.70;94.50;;;;;;5031451;28;20030;-80
2021/09/15 06:01:06;;;;;;;18.60;16.17;;;19.60;94.50;;;;;;5032666;28;20092;-80
2021/09/15 06:03:32;;;;;;;24.25;19.10;;;19.70;94.50;;;;;;5044584;28;20047;-80
2021/09/15 06:05:58;;;;;;;29.02;20.95;;;19.70;94.50;;;;;;5018154;28;20124;-80
2021/09/15 06:08:24;;;;;;;20.27;15.68;;;19.70;94.50;;;;;;5034641;28;20128;-80
2021/09/15 06:10:50;;;;;;;20.10;16.15;;;19.70;94.50;;;;;;5034077;28;20104;-80
2021/09/15 06:13:16;;;;;;;23.35;16.45;;;19.70;94.50;;;;;;5034416;28;20037;-80
2021/09/15 06:15:42;;;;;;;22.98;17.73;;;19.70;94.50;;;;;;5015948;28;20029;-80
2021/09/15 06:18:08;;;;;;;19.80;17.00;;;19.70;94.50;;;;;;5032339;28;20025;-80
2021/09/15 06:20:33;;;;;;;20.58;15.70;;;19.70;94.50;;;;;;5050556;28;20245;-80
2021/09/15 06:22:59;;;;;;;16.67;13.50;;;19.70;94.50;;;;;;5033486;28;20037;-79
2021/09/15 06:25:26;;;;;;;28.75;16.55;;;19.70;94.50;;;;;;5037872;28;20115;-79
2021/09/15 06:27:54;;;;;;;29.27;18.50;;;19.70;94.40;;;;;;5037060;28;20180;-81
2021/09/15 06:30:21;;;;;;;19.57;15.70;;;19.70;94.40;;;;;;5032690;28;20036;-82
2021/09/15 06:32:47;;;;;;;30.15;17.17;;;19.70;94.50;;;;;;5048824;28;20037;-83
2021/09/15 06:35:12;;;;;;;29.60;17.58;;;19.70;94.50;;;;;;5049766;28;20385;-83
2021/09/15 06:37:39;;;;;;;19.52;16.45;;;19.70;94.50;;;;;;5049307;28;20106;-82
2021/09/15 06:40:06;;;;;;;19.77;16.10;;;19.70;94.60;;;;;;5033529;28;20441;-84
2021/09/15 06:42:32;;;;;;;18.77;15.80;;;19.70;94.60;;;;;;5006472;28;20469;-84
2021/09/15 06:44:57;;;;;;;20.00;15.77;;;19.70;94.60;;;;;;5035142;28;20044;-83
2021/09/15 06:47:23;;;;;;;18.90;16.20;;;19.70;94.60;;;;;;5017358;28;20079;-83
2021/09/15 06:49:48;;;;;;;21.45;16.70;;;19.70;94.60;;;;;;5020454;28;20029;-83
2021/09/15 06:52:14;;;;;;;21.88;16.95;;;19.70;94.90;;;;;;5020002;28;20035;-83
2021/09/15 06:54:40;;;;;;;19.08;15.90;;;19.70;94.60;;;;;;5038216;28;20045;-83
2021/09/15 06:57:05;;;;;;;18.23;15.40;;;19.70;94.60;;;;;;5036893;28;20029;-83
2021/09/15 06:59:31;;;;;;;21.88;16.00;;;19.70;94.60;;;;;;5037652;28;20044;-83
2021/09/15 07:01:57;;;;;;;24.00;16.67;;;19.70;94.60;;;;;;5036364;28;20505;-83
2021/09/15 07:04:22;;;;;;;21.90;14.73;;;19.70;94.60;;;;;;5036208;28;20091;-83
2021/09/15 07:06:48;;;;;;;20.67;15.77;;;19.70;94.60;;;;;;5016003;28;20121;-83
2021/09/15 07:09:14;;;;;;;20.50;15.85;;;19.70;94.70;;;;;;5049688;28;20032;-82
2021/09/15 07:11:40;;;;;;;23.25;16.73;;;19.80;94.70;;;;;;5034745;28;20767;-83
2021/09/15 07:14:06;;;;;;;24.40;16.92;;;19.80;94.70;;;;;;5036922;28;20025;-83
2021/09/15 07:16:32;;;;;;;35.63;16.70;;;19.80;95.00;;;;;;5035543;28;20440;-83
2021/09/15 07:19:00;;;;;;;23.42;15.80;;;19.80;94.70;;;;;;5028746;28;20466;-83
2021/09/15 07:21:25;;;;;;;19.90;16.02;;;19.80;94.70;;;;;;5028767;28;20048;-83
2021/09/15 07:23:51;;;;;;;17.83;15.95;;;19.80;94.70;;;;;;5012759;28;20063;-82
2021/09/15 07:26:17;;;;;;;22.23;14.82;;;19.80;94.80;;;;;;5036376;28;20443;-83
2021/09/15 07:28:42;;;;;;;29.65;18.00;;;19.80;94.70;;;;;;5055428;28;20029;-83
2021/09/15 07:31:08;;;;;;;21.65;15.98;;;19.80;94.80;;;;;;5026324;28;20120;-83
2021/09/15 07:33:34;;;;;;;20.25;13.23;;;19.80;94.80;;;;;;5036261;28;20041;-83
2021/09/15 07:36:04;;;;;;;19.73;14.40;;;19.80;94.80;;;;;;5032153;28;20040;-83
2021/09/15 07:38:32;;;;;;;15.93;11.68;;;19.80;94.90;;;;;;5047926;28;20034;-83
2021/09/15 07:40:58;;;;;;;15.02;11.95;;;19.80;94.80;;;;;;5055169;28;20036;-84
2021/09/15 07:43:23;;;;;;;15.95;11.82;;;19.80;95.10;;;;;;5062115;28;20033;-82
2021/09/15 07:45:49;;;;;;;11.55;10.30;;;19.80;94.90;;;;;;5050593;28;20043;-82
2021/09/15 07:48:14;;;;;;;15.85;10.85;;;19.80;94.90;;;;;;5053168;28;20498;-86
2021/09/15 07:50:40;;;;;;;15.57;12.35;;;19.80;94.90;;;;;;5053409;28;20029;-86
2021/09/15 07:53:06;;;;;;;12.68;8.57;;;19.80;94.80;;;;;;5054351;28;20473;-88
2021/09/15 07:55:32;;;;;;;12.88;10.20;;;19.80;94.80;;;;;;5016891;28;20466;-87
2021/09/15 07:57:57;;;;;;;20.60;11.50;;;19.80;94.80;;;;;;5045169;28;20036;-85
2021/09/15 08:00:23;;;;;;;12.70;10.75;;;19.80;94.90;;;;;;5015549;28;20033;-85
2021/09/15 08:02:49;;;;;;;13.18;10.10;;;19.80;94.90;;;;;;5036257;28;20049;-85
2021/09/15 08:05:15;;;;;;;11.40;10.20;;;19.80;95.00;;;;;;5038403;28;20029;-86
2021/09/15 08:07:41;;;;;;;12.38;9.25;;;19.80;95.00;;;;;;5035788;28;20079;-84
2021/09/15 08:10:08;;;;;;;11.45;8.60;;;19.90;95.10;;;;;;5036313;28;20021;-87
2021/09/15 08:12:33;;;;;;;10.43;7.72;;;19.90;95.00;;;;;;5039623;28;20037;-86
2021/09/15 08:14:59;;;;;;;15.93;9.30;;;19.90;95.00;;;;;;5052720;28;20033;-86
2021/09/15 08:17:25;;;;;;;13.68;9.90;;;20.00;95.00;;;;;;5041044;28;20031;-86
2021/09/15 08:19:51;;;;;;;22.23;11.45;;;20.00;94.90;;;;;;5044627;28;20119;-86
2021/09/15 08:22:17;;;;;;;25.00;13.50;;;20.00;95.00;;;;;;5035881;28;20024;-86
2021/09/15 08:24:42;;;;;;;16.55;12.25;;;20.00;95.00;;;;;;5052575;28;20097;-86
2021/09/15 08:27:08;;;;;;;16.42;13.05;;;20.00;95.00;;;;;;5016666;28;20128;-82
2021/09/15 08:29:35;;;;;;;14.25;12.10;;;20.00;95.00;;;;;;5035324;28;20117;-83
2021/09/15 08:32:00;;;;;;;20.35;14.30;;;20.10;95.10;;;;;;5019088;28;20033;-83
2021/09/15 08:34:26;;;;;;;37.20;21.60;;;20.10;95.00;;;;;;5035413;28;20056;-83
2021/09/15 08:36:52;;;;;;;43.17;25.55;;;20.10;95.00;;;;;;5035000;28;20032;-82
2021/09/15 08:39:18;;;;;;;59.83;31.55;;;20.20;95.00;;;;;;5051140;28;20112;-82
2021/09/15 08:41:46;;;;;;;61.95;34.45;;;20.20;95.00;;;;;;5008376;28;20045;-81
2021/09/15 08:44:12;;;;;;;58.72;32.38;;;20.20;95.00;;;;;;5051250;28;20018;-80
2021/09/15 08:46:38;;;;;;;50.35;30.58;;;20.30;95.00;;;;;;5017118;28;20047;-80
2021/09/15 08:49:05;;;;;;;56.53;32.10;;;20.30;94.90;;;;;;5052183;28;20032;-81
2021/09/15 08:51:32;;;;;;;77.10;35.75;;;20.40;94.90;;;;;;5051444;28;20033;-82
2021/09/15 08:53:57;;;;;;;67.95;37.45;;;20.50;94.90;;;;;;5035456;28;20031;-82
2021/09/15 08:56:23;;;;;;;77.82;39.15;;;20.50;94.80;;;;;;5019376;28;20115;-83
2021/09/15 08:58:49;;;;;;;63.00;36.20;;;20.60;94.70;;;;;;5019075;28;20029;-82
2021/09/15 09:01:23;;;;;;;95.32;43.53;;;20.60;94.60;;;;;;5053108;28;20025;-82
2021/09/15 09:03:54;;;;;;;67.97;38.95;;;20.60;94.60;;;;;;5052768;28;20045;-82
2021/09/15 09:06:22;;;;;;;68.28;39.65;;;20.70;94.70;;;;;;5034933;28;20113;-82
2021/09/15 09:09:00;;;;;;;67.57;37.70;;;20.70;94.70;;;;;;5034891;28;20025;-82
2021/09/15 09:11:28;;;;;;;56.20;34.78;;;20.70;94.60;;;;;;5035075;28;20029;-82
2021/09/15 09:14:01;;;;;;;73.82;41.03;;;20.70;94.50;;;;;;5053584;28;20029;-82
2021/09/15 09:16:49;;;;;;;69.25;41.10;;;20.80;94.60;;;;;;5053568;28;20033;-82
2021/09/15 09:19:19;;;;;;;;;;;20.80;94.60;;;;;;5034143;28;20014;-82
2021/09/15 09:21:54;;;;;;;67.53;38.92;;;20.80;94.40;;;;;;5032581;28;19938;-82
2021/09/15 09:24:25;;;;;;;83.38;44.25;;;20.90;94.40;;;;;;5032251;28;20083;-82
2021/09/15 09:27:00;;;;;;;62.90;37.80;;;21.00;94.40;;;;;;5015726;28;20029;-82
2021/09/15 09:29:37;;;;;;;70.40;41.45;;;21.00;94.30;;;;;;5033497;28;20030;-82
2021/09/15 09:32:04;;;;;;;65.65;37.97;;;21.10;94.30;;;;;;5045449;28;20029;-82
2021/09/15 09:34:41;;;;;;;58.58;37.03;;;21.20;94.20;;;;;;5052288;28;20079;-82
2021/09/15 09:37:19;;;;;;;75.35;43.90;;;21.30;94.10;;;;;;5034636;28;20108;-82
2021/09/15 09:39:55;;;;;;;52.40;35.17;;;21.40;94.00;;;;;;5035091;28;20021;-82
2021/09/15 09:42:23;;;;;;;53.63;36.53;;;21.60;93.80;;;;;;5035359;28;20045;-82
2021/09/15 09:44:54;;;;;;;61.28;39.38;;;21.60;93.60;;;;;;5035470;28;20090;-82
2021/09/15 09:47:24;;;;;;;60.28;40.30;;;21.60;93.50;;;;;;5034057;28;20068;-82
2021/09/15 09:50:10;;;;;;;68.72;41.42;;;21.60;93.50;;;;;;5050465;28;20037;-82
2021/09/15 09:53:02;;;;;;;63.38;38.17;;;21.50;93.40;;;;;;5035048;28;20401;-82
2021/09/15 09:55:30;;;;;;;57.83;36.47;;;21.50;93.50;;;;;;5034893;28;20048;-82
2021/09/15 09:57:56;;;;;;;68.40;41.80;;;21.40;93.60;;;;;;5052847;28;20092;-82
2021/09/15 10:00:24;;;;;;;57.92;37.55;;;21.40;93.60;;;;;;5053423;28;20474;-82
2021/09/15 10:02:50;;;;;;;60.58;39.88;;;21.30;93.70;;;;;;5035004;28;20029;-82
2021/09/15 10:05:21;;;;;;;57.67;38.53;;;21.30;93.70;;;;;;5035356;28;20037;-82
2021/09/15 10:07:47;;;;;;;56.78;38.05;;;21.20;93.70;;;;;;5018743;28;20032;-82
2021/09/15 10:10:15;;;;;;;55.53;37.15;;;21.20;93.80;;;;;;5034868;28;20037;-82
2021/09/15 10:12:41;;;;;;;52.58;35.63;;;21.20;93.90;;;;;;5052978;28;20033;-82
2021/09/15 10:15:11;;;;;;;61.20;39.65;;;21.20;93.90;;;;;;5035039;28;20544;-82
2021/09/15 10:17:40;;;;;;;64.05;40.20;;;21.20;93.90;;;;;;5051780;28;20029;-82
2021/09/15 10:20:08;;;;;;;60.58;39.10;;;21.20;94.20;;;;;;5052133;28;20032;-82
2021/09/15 10:22:41;;;;;;;67.13;41.10;;;21.20;93.90;;;;;;5018808;28;20033;-82
2021/09/15 10:25:09;;;;;;;71.63;42.58;;;21.20;94.00;;;;;;5038606;28;20033;-82
2021/09/15 10:28:01;;;;;;;65.43;41.15;;;21.20;93.90;;;;;;5055481;28;20537;-82
2021/09/15 10:30:41;;;;;;;71.82;44.58;;;21.20;93.90;;;;;;5018910;28;20124;-82
2021/09/15 10:33:06;;;;;;;60.88;40.20;;;21.20;94.00;;;;;;5035439;28;20099;-82
2021/09/15 10:35:47;;;;;;;58.08;38.00;;;21.20;93.90;;;;;;5035316;28;20057;-81
2021/09/15 10:38:14;;;;;;;62.30;40.70;;;21.30;93.90;;;;;;5035244;28;20025;-81
2021/09/15 10:40:41;;;;;;;59.47;38.65;;;21.40;93.80;;;;;;5018690;28;20025;-82
2021/09/15 10:43:43;;;;;;;57.92;40.20;;;21.40;93.70;;;;;;5036599;28;20013;-82
2021/09/15 10:46:23;;;;;;;55.10;39.47;;;21.40;93.70;;;;;;4994915;28;20047;-82
2021/09/15 10:49:35;;;;;;;51.58;35.38;;;21.40;93.70;;;;;;5034266;28;20382;-82
2021/09/15 10:52:06;;;;;;;54.13;34.53;;;21.40;93.80;;;;;;5026575;28;20037;-83
2021/09/15 10:54:51;;;;;;;62.22;42.88;;;21.40;93.90;;;;;;5030882;28;20029;-82
2021/09/15 10:57:37;;;;;;;54.47;36.92;;;21.50;94.00;;;;;;5059461;28;20021;-82
2021/09/15 11:00:23;;;;;;;50.30;35.17;;;21.50;93.90;;;;;;5034425;28;20087;-82
2021/09/15 11:02:49;;;;;;;58.95;40.63;;;21.50;93.90;;;;;;5025475;28;20026;-82
2021/09/15 11:05:27;;;;;;;56.10;39.20;;;21.50;93.90;;;;;;5034341;28;20037;-82
2021/09/15 11:07:59;;;;;;;58.22;41.53;;;21.60;94.00;;;;;;5050693;28;20201;-82
2021/09/15 11:10:33;;;;;;;56.05;38.40;;;21.60;93.70;;;;;;5051679;28;20086;-82
2021/09/15 11:13:08;;;;;;;51.20;33.58;;;21.70;93.70;;;;;;5055147;28;20620;-82
2021/09/15 11:15:44;;;;;;;45.50;33.65;;;21.70;93.70;;;;;;5036271;28;20637;-82
2021/09/15 11:18:23;;;;;;;56.72;38.05;;;21.80;93.70;;;;;;5038348;28;20382;-82
2021/09/15 11:21:03;;;;;;;46.50;36.28;;;21.80;93.60;;;;;;5038044;28;20108;-82
2021/09/15 11:23:30;;;;;;;53.47;36.10;;;21.80;93.50;;;;;;5055517;28;20116;-81
2021/09/15 11:25:57;;;;;;;57.70;37.80;;;21.80;93.50;;;;;;5055463;28;20025;-82
2021/09/15 11:28:23;;;;;;;44.20;32.92;;;21.70;93.40;;;;;;5037734;28;20029;-81
2021/09/15 11:30:52;;;;;;;47.08;33.05;;;21.70;93.50;;;;;;5055673;28;20032;-81
2021/09/15 11:34:02;;;;;;;58.25;38.40;;;21.60;93.40;;;;;;5037626;28;20021;-82
2021/09/15 11:36:27;;;;;;;55.78;37.15;;;21.50;93.50;;;;;;4993594;28;20038;-82
2021/09/15 11:38:53;;;;;;;52.33;35.90;;;21.40;93.40;;;;;;5028255;28;20033;-82
2021/09/15 11:41:19;;;;;;;52.60;36.47;;;21.30;93.40;;;;;;5017406;28;20453;-80
2021/09/15 11:43:47;;;;;;;46.75;32.55;;;21.30;93.40;;;;;;5033456;28;20405;-79
2021/09/15 11:46:14;;;;;;;51.20;33.42;;;21.30;93.40;;;;;;5035698;28;20033;-80
2021/09/15 11:48:41;;;;;;;51.08;34.47;;;21.30;93.30;;;;;;5036546;28;20393;-79
2021/09/15 11:51:35;;;;;;;52.40;36.03;;;21.40;93.30;;;;;;5037239;28;20851;-80
2021/09/15 11:54:14;;;;;;;50.75;34.42;;;21.50;93.10;;;;;;5053072;28;20110;-80
2021/09/15 11:59:16;;;;;;;41.83;29.88;;;21.70;92.70;;;;;;5038532;28;20074;-80
2021/09/15 12:01:43;;;;;;;43.95;29.50;;;21.80;92.50;;;;;;5036553;28;20029;-80
2021/09/15 12:04:13;;;;;;;41.67;29.13;;;21.90;92.20;;;;;;5053513;28;20089;-80
2021/09/15 12:06:42;;;;;;;36.95;29.70;;;21.80;92.10;;;;;;5054795;28;20520;-80
2021/09/15 12:09:09;;;;;;;40.30;30.52;;;21.90;92.10;;;;;;5035982;28;20029;-80
2021/09/15 12:11:36;;;;;;;47.78;31.33;;;21.90;92.30;;;;;;5053096;28;20108;-79
2021/09/15 12:14:09;;;;;;;45.80;32.38;;;21.80;92.00;;;;;;5036564;28;20821;-82
2021/09/15 12:16:38;;;;;;;47.65;30.00;;;21.80;91.90;;;;;;5053529;28;20040;-82
2021/09/15 12:19:14;;;;;;;40.60;27.92;;;21.80;91.90;;;;;;5036495;28;20021;-83
2021/09/15 12:21:43;;;;;;;47.80;31.77;;;21.90;92.00;;;;;;5054306;28;20021;-82
2021/09/15 12:24:08;;;;;;;;;;;21.90;91.90;;;;;;5054845;28;20029;-83
2021/09/15 12:26:34;;;;;;;42.60;29.38;;;21.90;91.50;;;;;;5036523;28;19963;-82
2021/09/15 12:29:06;;;;;;;41.78;28.65;;;21.90;91.40;;;;;;5036229;28;20039;-82
2021/09/15 12:31:52;;;;;;;41.22;30.23;;;21.80;91.40;;;;;;5054298;28;20031;-82
2021/09/15 12:34:30;;;;;;;43.65;28.00;;;21.90;91.00;;;;;;5036223;28;20032;-82
2021/09/15 12:37:15;;;;;;;38.83;26.25;;;21.90;90.80;;;;;;5036347;28;20060;-82
2021/09/15 12:39:55;;;;;;;34.78;24.73;;;21.90;90.90;;;;;;5054093;28;20108;-82
2021/09/15 12:42:22;;;;;;;37.65;26.55;;;22.00;90.80;;;;;;5054151;28;20017;-82
2021/09/15 12:45:08;;;;;;;35.30;25.13;;;22.10;90.90;;;;;;5036153;28;20025;-82